Austin, Colorado
Current Conditions -  °F | °C
As of 6:35 PM on Friday 24 Oct 2014 (Local Time) from KAJZ Reporting Station
Clear Clear  
Wind Chill: 68°   Ceiling: Unl
Heat Index: 68°   Visibility: 7mi
Dew Point: 36°   Wind: 5mph
Humidity: 31%   Direction: 230°SW
Pressure: 30.22"   Gusts: NA
Location:  38.78°N, 107.95°W
Report Text: KAJZ 250035Z AUTO 23004KT 7SM CLR 20/02 A3022 RMK AO2 T02010022
Loading
Personal Weather Stations






























Interactive Weather Map
Tropical Storm Tracking
New forecast layout! Learn more

10-Day Weather Forecast

Advertisements
Track Severe Weather on mobile